Time;durP1;ratioP1;P1;durP2;ratioP2;P2;SDS_P1;SDS_P2;PMS_P1;PMS_P2;Temp;Humidity;BMP_temperature;BMP_pressure;BME280_temperature;BME280_humidity;BME280_pressure;Samples;Min_cycle;Max_cycle;Signal;HPM_P1;HPM_P2
2023/01/27 00:02:10;;;;;;;9.85;4.82;;;;;;;6.09;49.88;102558.59;7394198;19;20494;-69
2023/01/27 00:04:36;;;;;;;10.63;4.70;;;;;;;6.07;49.70;102566.19;7395458;19;20003;-68
2023/01/27 00:07:02;;;;;;;9.38;4.03;;;;;;;6.23;49.28;102569.78;7395905;19;20006;-70
2023/01/27 00:09:28;;;;;;;7.55;4.03;;;;;;;6.10;49.51;102560.25;7395475;19;20771;-70
2023/01/27 00:14:38;;;;;;;9.07;3.60;;;;;;;6.12;49.32;102571.63;7395497;19;20019;-66
2023/01/27 00:17:03;;;;;;;7.65;3.75;;;;;;;6.06;49.44;102569.97;7394886;19;19998;-65
2023/01/27 00:19:29;;;;;;;7.28;3.28;;;;;;;6.09;49.20;102569.44;7395055;19;20008;-65
2023/01/27 00:24:40;;;;;;;;;;;;;;;6.14;48.97;102574.88;7396048;19;20427;-65
2023/01/27 00:27:08;;;;;;;5.63;3.10;;;;;;;6.31;48.47;102571.97;7392908;19;19917;-67
2023/01/27 00:29:38;;;;;;;6.03;3.17;;;;;;;6.41;48.46;102580.09;7395544;19;20002;-64
2023/01/27 00:34:48;;;;;;;9.02;3.60;;;;;;;6.41;48.54;102558.41;7394862;19;20030;-65
2023/01/27 00:37:14;;;;;;;6.60;3.55;;;;;;;6.41;48.53;102573.84;7395341;19;19999;-64
2023/01/27 00:39:41;;;;;;;9.02;3.95;;;;;;;6.36;48.88;102571.13;7395341;19;20015;-65
2023/01/27 00:42:07;;;;;;;6.93;3.70;;;;;;;6.44;48.65;102574.16;7392647;19;20462;-64
2023/01/27 00:44:32;;;;;;;8.20;4.00;;;;;;;6.48;48.67;102571.69;7394588;19;20102;-65
2023/01/27 00:46:58;;;;;;;7.40;3.78;;;;;;;6.42;48.63;102575.47;7391947;19;20357;-64
2023/01/27 00:49:24;;;;;;;8.15;3.95;;;;;;;6.48;48.50;102577.13;7393639;19;20085;-64
2023/01/27 00:51:50;;;;;;;7.85;3.72;;;;;;;6.53;48.45;102566.28;7393337;19;20404;-63
2023/01/27 00:54:16;;;;;;;7.35;3.92;;;;;;;6.54;48.50;102573.31;7394751;19;20607;-64
2023/01/27 00:56:43;;;;;;;8.27;3.95;;;;;;;6.38;48.71;102568.97;7392005;19;20534;-65
2023/01/27 00:59:09;;;;;;;7.35;3.95;;;;;;;6.45;48.93;102566.81;7394241;19;20014;-64
2023/01/27 01:01:34;;;;;;;7.57;3.67;;;;;;;6.51;48.67;102565.75;7392809;19;20010;-65
2023/01/27 01:04:01;;;;;;;9.07;3.95;;;;;;;6.50;48.68;102566.81;7394478;19;20030;-65
2023/01/27 01:06:27;;;;;;;6.25;3.63;;;;;;;6.53;48.79;102574.41;7392222;19;20375;-69
2023/01/27 01:08:55;;;;;;;6.28;3.40;;;;;;;6.51;48.70;102576.59;7393325;19;20007;-68
2023/01/27 01:11:22;;;;;;;6.38;3.40;;;;;;;6.52;48.55;102580.09;7392716;19;20018;-68
2023/01/27 01:13:48;;;;;;;6.38;3.42;;;;;;;6.49;48.80;102565.19;7393621;19;19999;-69
2023/01/27 01:16:21;;;;;;;6.72;3.05;;;;;;;6.56;48.50;102573.88;7393530;19;20469;-64
2023/01/27 01:18:47;;;;;;;6.28;2.75;;;;;;;6.54;48.40;102576.03;7389402;19;20504;-65
2023/01/27 01:21:14;;;;;;;5.80;3.03;;;;;;;6.59;48.42;102580.66;7393834;19;20002;-65
2023/01/27 01:23:42;;;;;;;5.63;2.90;;;;;;;6.45;48.54;102581.19;7390793;19;20491;-66
2023/01/27 01:26:13;;;;;;;4.38;2.58;;;;;;;6.48;48.35;102579.84;7390055;19;20009;-64
2023/01/27 01:28:39;;;;;;;5.82;2.63;;;;;;;6.42;48.45;102584.44;7393011;19;20002;-65
2023/01/27 01:31:06;;;;;;;4.50;2.42;;;;;;;6.50;48.29;102585.81;7391015;19;20023;-64
2023/01/27 01:33:32;;;;;;;4.53;2.35;;;;;;;6.46;48.55;102587.41;7390901;19;20387;-64
2023/01/27 01:36:13;;;;;;;3.92;2.15;;;;;;;6.59;47.99;102592.31;7391215;19;20026;-64
2023/01/27 01:38:39;;;;;;;4.47;2.00;;;;;;;6.54;48.05;102594.22;7392867;19;19998;-64
2023/01/27 01:41:07;;;;;;;2.75;1.70;;;;;;;6.52;47.99;102593.69;7392016;19;20014;-64
2023/01/27 01:43:33;;;;;;;3.83;1.77;;;;;;;6.56;48.01;102592.88;7393094;19;20006;-64
2023/01/27 01:46:00;;;;;;;2.95;1.45;;;;;;;6.57;47.94;102604.53;7391831;19;19995;-64
2023/01/27 01:48:29;;;;;;;2.90;1.50;;;;;;;6.55;48.01;102604.81;7391992;19;20010;-64
2023/01/27 01:51:25;;;;;;;4.55;1.50;;;;;;;6.67;47.60;102608.06;7392146;19;19994;-64
2023/01/27 01:53:51;;;;;;;4.63;1.63;;;;;;;6.67;47.67;102610.78;7391646;19;20475;-64
2023/01/27 01:56:22;;;;;;;3.22;1.60;;;;;;;6.64;47.77;102605.91;7393288;19;20006;-64
2023/01/27 01:58:49;;;;;;;3.60;1.40;;;;;;;6.40;47.85;102602.06;7391762;19;19995;-64
2023/01/27 02:01:16;;;;;;;2.92;1.60;;;;;;;6.46;48.06;102603.69;7391983;19;20009;-64
2023/01/27 02:03:46;;;;;;;3.03;1.33;;;;;;;6.46;48.00;102598.25;7393317;19;20371;-64
2023/01/27 02:06:12;;;;;;;2.38;1.40;;;;;;;6.29;48.33;102604.75;7391449;19;20079;-64
2023/01/27 02:08:43;;;;;;;4.10;1.42;;;;;;;6.49;48.09;102608.59;7390422;19;19999;-64
2023/01/27 02:11:09;;;;;;;3.50;1.40;;;;;;;6.50;47.89;102612.94;7389682;19;20335;-64
2023/01/27 02:13:36;;;;;;;2.95;1.48;;;;;;;6.50;48.03;102610.22;7391657;19;20017;-64
2023/01/27 02:16:02;;;;;;;2.63;1.35;;;;;;;6.59;47.89;102608.59;7392741;19;20614;-65
2023/01/27 02:18:28;;;;;;;4.03;1.60;;;;;;;6.58;47.92;102606.97;7390792;19;20003;-64
2023/01/27 02:20:54;;;;;;;3.65;1.40;;;;;;;6.51;48.02;102611.88;7390634;19;20467;-64
2023/01/27 02:23:34;;;;;;;6.07;1.73;;;;;;;6.59;47.81;102611.31;7390870;19;20562;-64
2023/01/27 02:26:06;;;;;;;3.60;1.20;;;;;;;6.53;48.02;102615.13;7389994;19;20020;-64
2023/01/27 02:28:32;;;;;;;4.32;1.42;;;;;;;6.44;48.17;102611.28;7390549;19;19999;-64
2023/01/27 02:30:58;;;;;;;2.08;1.40;;;;;;;6.47;48.16;102611.56;7390608;19;20016;-64
2023/01/27 02:33:24;;;;;;;2.92;1.38;;;;;;;6.58;47.99;102622.44;7388253;19;20014;-65
2023/01/27 02:35:53;;;;;;;3.42;1.40;;;;;;;6.53;47.99;102619.69;7391729;19;20010;-64
2023/01/27 02:38:19;;;;;;;3.17;1.65;;;;;;;6.32;48.62;102620.47;7390719;19;20007;-64
2023/01/27 02:40:50;;;;;;;3.85;1.70;;;;;;;6.20;49.09;102622.63;7390430;19;20441;-64
2023/01/27 02:43:16;;;;;;;4.93;1.50;;;;;;;6.43;48.71;102628.66;7390411;19;20475;-65
2023/01/27 02:45:44;;;;;;;4.03;1.50;;;;;;;6.35;48.58;102613.72;7390153;19;19999;-65
2023/01/27 02:48:10;;;;;;;4.13;1.70;;;;;;;6.24;48.85;102612.91;7389199;19;19999;-65
2023/01/27 02:50:36;;;;;;;3.47;1.55;;;;;;;6.28;49.14;102616.69;7388949;19;19999;-65
2023/01/27 02:53:02;;;;;;;4.38;1.60;;;;;;;6.28;49.06;102624.81;7390756;19;19992;-66
2023/01/27 02:55:28;;;;;;;2.38;1.40;;;;;;;6.32;49.03;102630.53;7391008;19;20032;-65
2023/01/27 02:58:00;;;;;;;3.17;1.55;;;;;;;6.37;49.14;102624.31;7388690;19;20002;-68
2023/01/27 03:00:26;;;;;;;4.03;1.50;;;;;;;6.39;49.10;102627.56;7390042;19;20686;-68
2023/01/27 03:02:52;;;;;;;2.40;1.50;;;;;;;6.47;48.92;102622.41;7390358;19;20002;-65
2023/01/27 03:05:17;;;;;;;4.43;1.48;;;;;;;6.35;49.21;102619.16;7390035;19;20007;-66
2023/01/27 03:07:43;;;;;;;5.20;1.70;;;;;;;6.40;49.11;102618.34;7390056;19;20343;-66
2023/01/27 03:10:09;;;;;;;3.72;1.70;;;;;;;6.29;49.42;102631.06;7388864;19;20063;-66
2023/01/27 03:12:35;;;;;;;3.42;1.80;;;;;;;6.25;49.62;102633.50;7388298;19;20002;-67
2023/01/27 03:20:30;;;;;;;3.90;1.45;;;;;;;6.17;49.82;102636.72;7390926;19;20002;-66
2023/01/27 03:22:56;;;;;;;6.15;1.75;;;;;;;6.26;49.62;102645.13;7398023;19;20001;-66
2023/01/27 03:25:22;;;;;;;3.92;2.03;;;;;;;6.30;49.49;102648.97;7396904;19;20398;-67
2023/01/27 03:27:48;;;;;;;3.70;1.92;;;;;;;6.37;49.52;102649.50;7397075;19;20838;-67
2023/01/27 03:30:14;;;;;;;3.88;1.65;;;;;;;6.23;49.90;102654.63;7398072;19;20054;-67
2023/01/27 03:32:45;;;;;;;3.15;1.73;;;;;;;6.32;49.73;102652.22;7394321;19;20007;-67
2023/01/27 03:35:13;;;;;;;5.43;1.80;;;;;;;6.32;49.45;102647.59;7397211;19;20357;-68
2023/01/27 03:48:38;;;;;;;4.05;2.00;;;;;;;6.12;50.27;102661.91;7395826;19;19964;-64
2023/01/27 03:51:07;;;;;;;3.38;2.03;;;;;;;6.17;50.23;102663.03;7395892;19;20005;-64
2023/01/27 03:53:33;;;;;;;3.75;1.98;;;;;;;6.19;50.37;102663.56;7394402;19;20036;-64
2023/01/27 03:55:59;;;;;;;6.07;2.45;;;;;;;6.14;50.58;102669.78;7396929;19;20011;-64
2023/01/27 03:58:28;;;;;;;4.18;1.98;;;;;;;6.22;50.63;102674.69;7395912;19;20518;-68
2023/01/27 04:01:03;;;;;;;4.57;2.10;;;;;;;6.14;50.68;102683.34;7396443;19;20011;-71
2023/01/27 04:09:05;;;;;;;5.28;2.13;;;;;;;6.04;50.73;102677.88;7395979;19;20050;-65
2023/01/27 04:14:16;;;;;;;6.22;2.03;;;;;;;6.04;50.70;102683.28;7396352;19;20010;-66
2023/01/27 04:16:43;;;;;;;4.05;1.80;;;;;;;6.11;50.69;102681.19;7396288;19;20011;-68
2023/01/27 04:19:10;;;;;;;4.68;2.03;;;;;;;5.99;50.83;102681.38;7396010;19;20010;-67
2023/01/27 04:21:36;;;;;;;2.90;1.77;;;;;;;5.93;51.06;102688.66;7395858;19;20002;-67
2023/01/27 04:24:03;;;;;;;3.45;1.70;;;;;;;5.82;51.24;102675.31;7396143;19;19995;-67
2023/01/27 04:26:33;;;;;;;3.30;1.88;;;;;;;5.98;50.56;102685.19;7394045;19;19999;-66
2023/01/27 04:29:03;;;;;;;3.10;1.90;;;;;;;5.72;51.16;102693.16;7395295;19;20395;-67
2023/01/27 04:31:31;;;;;;;4.85;1.95;;;;;;;5.73;51.00;102685.84;7391397;19;20011;-66
2023/01/27 04:33:57;;;;;;;4.75;2.10;;;;;;;5.78;50.96;102674.25;7390641;19;20011;-66
2023/01/27 04:36:22;;;;;;;4.47;1.85;;;;;;;5.73;50.94;102683.94;7395048;19;20411;-66
2023/01/27 04:38:48;;;;;;;3.80;2.03;;;;;;;5.64;51.32;102690.13;7393146;19;20003;-65
2023/01/27 04:41:14;;;;;;;3.70;2.05;;;;;;;5.63;51.23;102699.34;7394634;19;20006;-66
2023/01/27 04:43:40;;;;;;;4.35;2.25;;;;;;;5.63;51.05;102689.31;7395801;19;20451;-67
2023/01/27 04:46:06;;;;;;;5.65;2.10;;;;;;;5.67;51.07;102695.03;7393376;19;20109;-65
2023/01/27 04:48:32;;;;;;;4.03;2.22;;;;;;;5.74;50.76;102703.72;7393927;19;20106;-66
2023/01/27 04:50:57;;;;;;;3.42;1.88;;;;;;;5.71;50.89;102702.38;7392059;19;20351;-65
2023/01/27 04:53:23;;;;;;;4.82;1.90;;;;;;;5.54;51.34;102694.41;7395054;19;20563;-65
2023/01/27 04:55:49;;;;;;;3.92;2.20;;;;;;;5.67;51.00;102698.53;7393997;19;20014;-65
2023/01/27 04:58:17;;;;;;;3.47;2.03;;;;;;;5.76;50.68;102709.72;7394051;19;20062;-62
2023/01/27 05:00:44;;;;;;;3.58;1.90;;;;;;;5.79;50.58;102716.50;7393633;19;20058;-63
2023/01/27 05:03:10;;;;;;;4.63;2.35;;;;;;;5.70;50.72;102706.16;7394036;19;20018;-64
2023/01/27 05:05:37;;;;;;;4.90;2.55;;;;;;;5.65;50.94;102711.53;7393090;19;20333;-65
2023/01/27 05:08:04;;;;;;;4.47;2.35;;;;;;;5.65;50.98;102719.66;7393392;19;20002;-63
2023/01/27 05:10:30;;;;;;;4.22;2.20;;;;;;;5.80;50.68;102720.84;7394468;19;20449;-63
2023/01/27 05:12:57;;;;;;;5.38;2.40;;;;;;;5.70;50.72;102725.13;7394038;19;20078;-63
2023/01/27 05:15:23;;;;;;;4.88;2.50;;;;;;;5.79;50.58;102724.63;7394981;19;20002;-63
2023/01/27 05:17:49;;;;;;;3.75;2.45;;;;;;;5.67;50.96;102727.53;7392660;19;20005;-63
2023/01/27 05:20:15;;;;;;;3.83;2.20;;;;;;;5.86;50.57;102726.03;7393411;19;20006;-63
2023/01/27 05:22:41;;;;;;;6.20;2.55;;;;;;;5.94;50.43;102730.13;7391219;19;20010;-63
2023/01/27 05:25:08;;;;;;;4.43;2.40;;;;;;;5.84;50.59;102728.19;7393737;19;20295;-66
2023/01/27 05:27:34;;;;;;;4.70;2.50;;;;;;;5.84;50.50;102733.63;7391016;19;20022;-66
2023/01/27 05:30:00;;;;;;;4.88;2.35;;;;;;;5.92;50.36;102733.09;7393155;19;19998;-67
2023/01/27 05:32:26;;;;;;;6.25;2.50;;;;;;;5.87;50.48;102729.56;7388915;19;20353;-67
2023/01/27 05:34:52;;;;;;;4.80;2.75;;;;;;;5.93;50.38;102731.22;7393849;19;20022;-67
2023/01/27 05:37:18;;;;;;;6.32;2.80;;;;;;;5.68;50.98;102740.00;7390357;19;19999;-66
2023/01/27 05:39:44;;;;;;;4.63;2.30;;;;;;;5.91;50.43;102741.53;7392748;19;20328;-66
2023/01/27 05:42:09;;;;;;;4.65;2.50;;;;;;;5.77;50.73;102743.84;7392018;19;20017;-66
2023/01/27 05:44:35;;;;;;;6.47;2.85;;;;;;;5.92;50.39;102743.94;7390453;19;20010;-67
2023/01/27 05:47:01;;;;;;;4.03;2.50;;;;;;;5.75;50.71;102743.31;7389122;19;20034;-67
2023/01/27 05:49:27;;;;;;;6.45;2.38;;;;;;;5.90;50.16;102743.41;7391412;19;19995;-67
2023/01/27 05:51:53;;;;;;;5.13;2.70;;;;;;;5.87;50.57;102738.50;7392161;19;19994;-67
2023/01/27 05:54:19;;;;;;;6.47;2.65;;;;;;;5.91;50.44;102745.03;7393240;19;20012;-67
2023/01/27 05:56:44;;;;;;;4.80;2.63;;;;;;;5.91;50.30;102750.47;7391818;19;20373;-67
2023/01/27 05:59:11;;;;;;;4.70;2.90;;;;;;;5.91;50.32;102747.75;7392319;19;20010;-68
2023/01/27 06:01:37;;;;;;;5.35;2.80;;;;;;;5.97;50.27;102732.31;7391189;19;20017;-69
2023/01/27 06:04:03;;;;;;;4.45;2.50;;;;;;;5.94;50.27;102733.69;7390816;19;20006;-68
2023/01/27 06:06:31;;;;;;;4.35;2.63;;;;;;;5.90;50.30;102737.97;7391165;19;20113;-68
2023/01/27 06:08:57;;;;;;;4.38;2.65;;;;;;;5.94;50.14;102744.53;7391404;19;19999;-70
2023/01/27 06:11:24;;;;;;;5.40;2.72;;;;;;;5.91;50.20;102736.91;7390527;19;20002;-67
2023/01/27 06:13:51;;;;;;;5.25;3.05;;;;;;;5.81;50.44;102746.84;7390966;19;20003;-68
2023/01/27 06:16:19;;;;;;;5.60;2.80;;;;;;;5.96;50.19;102746.97;7391962;19;19998;-67
2023/01/27 06:18:46;;;;;;;5.18;3.08;;;;;;;5.94;50.17;102755.38;7390835;19;20009;-67
2023/01/27 06:21:13;;;;;;;6.05;2.95;;;;;;;5.94;50.28;102749.94;7391255;19;20003;-66
2023/01/27 06:23:39;;;;;;;5.03;3.03;;;;;;;5.99;50.01;102751.84;7392118;19;20483;-66
2023/01/27 06:26:15;;;;;;;7.00;3.30;;;;;;;5.96;50.18;102754.28;7390522;19;19999;-66
2023/01/27 06:28:40;;;;;;;5.25;3.05;;;;;;;5.99;50.14;102757.25;7388799;19;20018;-66
2023/01/27 06:31:11;;;;;;;6.50;2.95;;;;;;;5.84;50.57;102760.72;7391567;19;20003;-66
2023/01/27 06:33:38;;;;;;;5.05;2.85;;;;;;;5.91;50.28;102769.44;7389700;19;20002;-66
2023/01/27 06:36:09;;;;;;;4.80;2.92;;;;;;;5.96;50.11;102768.66;7391739;19;20007;-65
2023/01/27 06:38:36;;;;;;;4.97;2.65;;;;;;;6.02;49.88;102773.00;7391068;19;20005;-66
2023/01/27 06:41:02;;;;;;;5.60;3.00;;;;;;;5.96;50.11;102776.78;7391177;19;20324;-68
2023/01/27 06:43:29;;;;;;;5.72;3.05;;;;;;;6.01;49.92;102776.81;7389208;19;20002;-68
2023/01/27 06:45:56;;;;;;;5.78;3.40;;;;;;;6.01;49.82;102775.97;7390236;19;19999;-68
2023/01/27 06:48:23;;;;;;;4.65;3.25;;;;;;;5.97;49.90;102780.31;7389899;19;19998;-68
2023/01/27 06:50:49;;;;;;;4.68;2.75;;;;;;;5.81;50.14;102782.91;7388716;19;20314;-68
2023/01/27 06:53:15;;;;;;;5.65;2.90;;;;;;;5.87;50.08;102792.69;7390092;19;19998;-68
2023/01/27 06:55:40;;;;;;;5.40;3.17;;;;;;;6.00;49.87;102791.44;7395493;19;20001;-68
2023/01/27 06:58:07;;;;;;;5.07;2.97;;;;;;;5.91;49.78;102799.25;7397847;19;20304;-68
2023/01/27 07:00:35;;;;;;;4.45;2.92;;;;;;;5.79;50.01;102795.88;7398389;19;20335;-68
2023/01/27 07:03:01;;;;;;;4.85;2.60;;;;;;;5.78;49.99;102799.69;7396299;19;20033;-68
2023/01/27 07:05:27;;;;;;;4.07;2.50;;;;;;;5.61;50.16;102804.41;7397410;19;20083;-68
2023/01/27 07:07:53;;;;;;;3.92;2.47;;;;;;;5.66;50.18;102810.72;7396891;19;19994;-68
2023/01/27 07:10:19;;;;;;;4.20;2.53;;;;;;;5.73;49.94;102810.50;7396201;19;19998;-68
2023/01/27 07:12:45;;;;;;;3.83;2.42;;;;;;;5.78;49.93;102817.84;7394728;19;20478;-66
2023/01/27 07:15:11;;;;;;;5.00;2.55;;;;;;;5.90;49.72;102829.31;7398875;19;20104;-67
2023/01/27 07:17:37;;;;;;;4.85;2.47;;;;;;;5.79;49.91;102827.59;7397563;19;19998;-66
2023/01/27 07:20:04;;;;;;;4.47;2.50;;;;;;;5.88;49.85;102829.59;7397651;19;20010;-66
2023/01/27 07:22:30;;;;;;;6.20;2.95;;;;;;;5.92;49.54;102832.59;7393692;19;19995;-67
2023/01/27 07:24:56;;;;;;;3.20;2.25;;;;;;;5.88;49.63;102832.28;7396951;19;20028;-67
2023/01/27 07:27:23;;;;;;;4.65;2.58;;;;;;;5.86;49.62;102834.44;7396315;19;19994;-67
2023/01/27 07:29:49;;;;;;;4.57;2.72;;;;;;;5.88;49.59;102843.13;7396846;19;20737;-67
2023/01/27 07:32:14;;;;;;;3.67;2.47;;;;;;;6.05;49.19;102836.75;7389290;19;20034;-59
2023/01/27 07:34:40;;;;;;;4.82;2.80;;;;;;;6.02;49.16;102837.28;7396962;19;20035;-60
2023/01/27 07:37:06;;;;;;;4.85;2.50;;;;;;;5.88;49.51;102853.97;7395538;19;19995;-59
2023/01/27 07:39:35;;;;;;;5.75;2.50;;;;;;;5.94;49.46;102846.69;7395217;19;19995;-61
2023/01/27 07:42:00;;;;;;;6.05;2.50;;;;;;;5.98;49.51;102868.69;7395310;19;19995;-60
2023/01/27 07:44:27;;;;;;;4.82;2.20;;;;;;;5.78;49.67;102869.34;7396071;19;20360;-61
2023/01/27 07:46:53;;;;;;;6.10;2.40;;;;;;;5.88;49.61;102861.28;7394319;19;20007;-60
2023/01/27 07:49:18;;;;;;;3.42;2.40;;;;;;;6.00;49.24;102856.50;7394615;19;20002;-60
2023/01/27 07:51:45;;;;;;;4.75;2.25;;;;;;;5.87;49.36;102865.88;7395493;19;19995;-60
2023/01/27 07:54:11;;;;;;;3.70;1.98;;;;;;;5.95;49.20;102859.19;7396459;19;20020;-60
2023/01/27 07:56:37;;;;;;;2.88;1.90;;;;;;;5.79;49.29;102871.78;7396993;19;19997;-62
2023/01/27 07:59:03;;;;;;;4.15;1.90;;;;;;;5.84;49.30;102874.56;7395909;19;20479;-61
2023/01/27 08:01:29;;;;;;;4.90;2.10;;;;;;;5.85;49.12;102869.94;7395708;19;20575;-60
2023/01/27 08:03:55;;;;;;;5.72;2.15;;;;;;;5.95;49.10;102870.03;7395728;19;20015;-60
2023/01/27 08:06:21;;;;;;;3.45;2.10;;;;;;;6.03;48.61;102877.69;7392978;19;19995;-61
2023/01/27 08:08:47;;;;;;;4.10;1.90;;;;;;;6.07;48.63;102883.41;7394948;19;19998;-60
2023/01/27 08:11:14;;;;;;;3.08;1.85;;;;;;;5.95;48.81;102880.88;7396459;19;19995;-61
2023/01/27 08:13:40;;;;;;;2.42;1.70;;;;;;;5.92;48.86;102892.22;7395627;19;20006;-60
2023/01/27 08:16:14;;;;;;;3.17;1.92;;;;;;;5.98;48.73;102901.22;7396107;19;20064;-62
2023/01/27 08:18:40;;;;;;;;;;;;;;;5.86;48.93;102891.38;7395933;19;20247;-61
2023/01/27 08:21:08;;;;;;;3.85;1.50;;;;;;;5.91;48.85;102896.03;7395562;19;19914;-60
2023/01/27 08:23:34;;;;;;;4.68;1.77;;;;;;;5.85;48.90;102894.34;7396139;19;20078;-61
2023/01/27 08:26:02;;;;;;;3.53;1.58;;;;;;;5.86;48.96;102899.50;7394780;19;20585;-60
2023/01/27 08:28:30;;;;;;;4.25;1.90;;;;;;;5.80;48.73;102889.69;7394996;19;20015;-59
2023/01/27 08:31:04;;;;;;;3.03;1.80;;;;;;;5.89;48.69;102890.84;7393842;19;20344;-60
2023/01/27 08:33:30;;;;;;;3.50;1.60;;;;;;;5.89;48.53;102895.44;7390756;19;20061;-59
2023/01/27 08:36:02;;;;;;;2.95;1.58;;;;;;;5.93;48.42;102889.25;7394892;19;20046;-59
2023/01/27 08:38:28;;;;;;;2.78;1.50;;;;;;;6.00;48.18;102882.81;7394380;19;20001;-60
2023/01/27 08:40:53;;;;;;;2.53;1.42;;;;;;;5.90;48.27;102889.75;7394673;19;20066;-61
2023/01/27 08:43:19;;;;;;;3.63;1.60;;;;;;;5.92;48.06;102890.31;7395403;19;19994;-60
2023/01/27 08:45:46;;;;;;;2.53;1.50;;;;;;;6.10;47.88;102891.81;7394013;19;19999;-61
2023/01/27 08:48:11;;;;;;;6.25;1.60;;;;;;;6.08;47.84;102895.88;7393436;19;19998;-60
2023/01/27 08:50:37;;;;;;;3.60;1.42;;;;;;;6.12;47.90;102897.78;7394914;19;20479;-61
2023/01/27 08:53:03;;;;;;;2.42;1.20;;;;;;;6.11;47.88;102895.38;7392194;19;20005;-62
2023/01/27 08:55:31;;;;;;;3.60;1.48;;;;;;;6.07;48.04;102899.66;7395129;19;20303;-61
2023/01/27 08:57:58;;;;;;;1.92;1.25;;;;;;;6.03;48.07;102906.69;7393472;19;20365;-63
2023/01/27 09:00:25;;;;;;;2.17;1.25;;;;;;;6.05;48.12;102912.66;7392913;19;20057;-63
2023/01/27 09:02:51;;;;;;;2.78;1.48;;;;;;;6.18;47.82;102911.41;7392718;19;19998;-62
2023/01/27 09:05:18;;;;;;;3.88;1.50;;;;;;;6.32;47.37;102918.81;7392237;19;20009;-63
2023/01/27 09:07:45;;;;;;;3.03;1.77;;;;;;;6.33;47.49;102914.25;7393284;19;20006;-62
2023/01/27 09:10:15;;;;;;;2.58;1.48;;;;;;;6.34;47.48;102923.19;7393963;19;19998;-63
2023/01/27 09:12:42;;;;;;;3.95;1.65;;;;;;;6.20;47.71;102933.66;7393379;19;20003;-60
2023/01/27 09:15:09;;;;;;;2.55;1.40;;;;;;;6.26;47.70;102933.44;7393775;19;19999;-60
2023/01/27 09:17:34;;;;;;;4.25;1.80;;;;;;;6.24;47.60;102935.59;7392551;19;20338;-60
2023/01/27 09:20:00;;;;;;;2.40;1.60;;;;;;;6.34;47.36;102934.84;7392214;19;20002;-59
2023/01/27 09:22:26;;;;;;;3.08;1.70;;;;;;;6.15;47.85;102930.91;7391888;19;20003;-62
2023/01/27 09:24:52;;;;;;;4.13;1.70;;;;;;;6.10;47.89;102942.53;7393706;19;20005;-59
2023/01/27 09:27:18;;;;;;;3.67;1.60;;;;;;;6.23;47.58;102944.00;7392453;19;20023;-59
2023/01/27 09:29:43;;;;;;;3.88;2.00;;;;;;;6.26;47.54;102944.28;7393189;19;20006;-60
2023/01/27 09:32:11;;;;;;;3.42;1.63;;;;;;;6.26;47.59;102938.03;7391682;19;20006;-60
2023/01/27 09:34:38;;;;;;;2.92;1.58;;;;;;;6.39;47.45;102937.59;7391255;19;20026;-60
2023/01/27 09:37:12;;;;;;;3.15;1.70;;;;;;;6.23;47.62;102942.09;7392788;19;20028;-61
2023/01/27 09:39:41;;;;;;;;;;;;;;;6.10;47.54;102931.69;7393852;19;20001;-60
2023/01/27 09:42:25;;;;;;;2.63;1.67;;;;;;;6.19;47.18;102929.31;7389878;19;20695;-59
2023/01/27 09:45:23;;;;;;;4.35;1.73;;;;;;;6.08;47.72;102931.13;7393210;19;20044;-60
2023/01/27 09:48:10;;;;;;;3.88;1.90;;;;;;;6.40;47.01;102938.44;7392388;19;19998;-60
2023/01/27 09:51:01;;;;;;;4.95;1.92;;;;;;;6.11;47.13;102930.63;7392182;19;20006;-59
2023/01/27 09:53:40;;;;;;;3.55;2.13;;;;;;;6.32;46.88;102934.28;7390869;19;20014;-62
2023/01/27 09:56:24;;;;;;;3.67;1.77;;;;;;;6.14;47.40;102932.78;7392825;19;20010;-60
2023/01/27 09:59:18;;;;;;;3.15;1.70;;;;;;;6.21;46.79;102935.28;7391314;19;20351;-60
2023/01/27 10:01:52;;;;;;;3.22;1.67;;;;;;;5.96;47.62;102930.47;7390390;19;20007;-60
2023/01/27 10:04:26;;;;;;;;;;;;;;;6.27;47.29;102940.50;7392943;19;20082;-61
2023/01/27 10:07:39;;;;;;;4.00;1.95;;;;;;;6.50;46.97;102936.59;7388815;19;20248;-61
2023/01/27 10:10:14;;;;;;;2.22;1.60;;;;;;;6.46;46.95;102934.66;7390413;19;20035;-60
2023/01/27 10:13:07;;;;;;;3.05;1.58;;;;;;;6.24;47.38;102941.03;7390385;19;20711;-60
2023/01/27 10:15:48;;;;;;;4.00;1.80;;;;;;;6.31;47.15;102938.91;7390427;19;20030;-60
2023/01/27 10:18:22;;;;;;;3.90;1.65;;;;;;;6.47;46.96;102937.09;7390822;19;20018;-60
2023/01/27 10:21:16;;;;;;;3.75;1.80;;;;;;;6.45;46.69;102927.59;7390563;19;20306;-58
2023/01/27 10:24:05;;;;;;;4.20;1.50;;;;;;;6.38;46.56;102935.16;7391939;19;20396;-59
2023/01/27 10:26:40;;;;;;;1.75;1.23;;;;;;;6.30;46.54;102934.56;7390952;19;20006;-58
2023/01/27 10:29:26;;;;;;;4.15;1.30;;;;;;;6.18;46.49;102935.81;7389940;19;20006;-58
2023/01/27 10:32:00;;;;;;;2.55;1.20;;;;;;;6.49;46.09;102936.84;7390086;19;20372;-59
2023/01/27 10:34:33;;;;;;;1.27;1.13;;;;;;;6.58;46.04;102940.72;7390928;19;20006;-59
2023/01/27 10:37:04;;;;;;;4.53;1.20;;;;;;;6.66;45.62;102940.22;7391020;19;20018;-59
2023/01/27 10:39:45;;;;;;;1.75;1.25;;;;;;;6.72;45.08;102932.13;7390688;19;20002;-59
2023/01/27 10:42:23;;;;;;;4.10;1.40;;;;;;;6.77;45.35;102938.38;7390145;19;20008;-61
2023/01/27 10:44:56;;;;;;;1.85;1.10;;;;;;;6.90;45.28;102934.38;7391116;19;19994;-61
2023/01/27 10:47:30;;;;;;;6.38;1.35;;;;;;;6.97;45.20;102939.59;7390366;19;20458;-61
2023/01/27 10:50:03;;;;;;;3.60;1.35;;;;;;;6.92;45.37;102934.16;7391010;19;20070;-61
2023/01/27 10:52:53;;;;;;;10.25;1.90;;;;;;;6.88;45.29;102941.97;7389506;19;20002;-60
2023/01/27 10:55:25;;;;;;;1.98;1.33;;;;;;;6.83;45.57;102931.91;7390680;19;20012;-60
2023/01/27 10:58:05;;;;;;;4.15;1.73;;;;;;;6.68;45.61;102942.69;7389792;19;20014;-60
2023/01/27 11:00:49;;;;;;;2.95;1.70;;;;;;;6.70;45.77;102940.53;7390723;19;20002;-59
2023/01/27 11:03:31;;;;;;;3.88;1.92;;;;;;;6.79;45.80;102935.41;7388079;19;20441;-60
2023/01/27 11:06:01;;;;;;;2.90;1.80;;;;;;;6.74;46.15;102935.38;7389785;19;20514;-59
2023/01/27 11:08:32;;;;;;;2.65;1.83;;;;;;;6.65;46.65;102932.34;7390208;19;19994;-59
2023/01/27 11:13:49;;;;;;;2.22;1.52;;;;;;;6.45;47.04;102935.75;7392242;19;20389;-60
2023/01/27 11:16:17;;;;;;;3.42;1.80;;;;;;;6.70;46.61;102942.44;7392597;19;20463;-59
2023/01/27 11:18:45;;;;;;;3.92;1.75;;;;;;;6.88;46.06;102925.69;7389095;19;20307;-60
2023/01/27 11:21:19;;;;;;;2.22;1.38;;;;;;;6.87;45.49;102933.00;7388571;19;20491;-59
2023/01/27 11:23:52;;;;;;;2.58;1.20;;;;;;;6.73;45.99;102931.84;7387467;19;20078;-59
2023/01/27 11:26:46;;;;;;;2.72;1.05;;;;;;;6.84;45.80;102930.00;7387757;19;20031;-58
2023/01/27 11:29:21;;;;;;;2.30;0.85;;;;;;;6.76;45.83;102930.50;7389241;19;19998;-59
2023/01/27 11:32:21;;;;;;;1.55;0.90;;;;;;;6.79;45.32;102927.25;7385842;19;20007;-59
2023/01/27 11:35:03;;;;;;;1.05;0.80;;;;;;;6.61;45.88;102936.66;7389252;19;20018;-59
2023/01/27 11:37:35;;;;;;;3.10;0.90;;;;;;;6.80;45.72;102934.34;7388931;19;19998;-59
2023/01/27 11:40:02;;;;;;;1.13;0.90;;;;;;;6.83;45.72;102931.09;7389541;19;20066;-60
2023/01/27 11:42:34;;;;;;;1.45;0.80;;;;;;;6.82;45.54;102929.47;7390407;19;20014;-59
2023/01/27 11:45:01;;;;;;;2.97;0.73;;;;;;;6.69;45.92;102917.16;7396624;19;20021;-59
2023/01/27 11:47:31;;;;;;;3.45;1.00;;;;;;;6.50;45.85;102924.94;7395649;19;20005;-60
2023/01/27 11:49:59;;;;;;;1.23;0.70;;;;;;;6.50;45.81;102919.50;7395747;19;20431;-61
2023/01/27 11:52:27;;;;;;;2.50;1.33;;;;;;;6.71;45.61;102917.75;7395143;19;20007;-59
2023/01/27 11:55:05;;;;;;;2.63;1.20;;;;;;;6.83;45.39;102920.25;7396895;19;20002;-59
2023/01/27 11:57:32;;;;;;;4.28;1.42;;;;;;;6.77;45.73;102913.16;7394848;19;20004;-58
2023/01/27 12:00:06;;;;;;;4.47;1.52;;;;;;;6.78;45.74;102909.34;7396307;19;20013;-59
2023/01/27 12:02:41;;;;;;;3.40;1.23;;;;;;;6.65;45.83;102916.88;7394736;19;20019;-59
2023/01/27 12:05:13;;;;;;;2.95;1.45;;;;;;;6.47;45.93;102920.03;7396224;19;20103;-60
2023/01/27 12:07:47;;;;;;;2.50;1.40;;;;;;;6.46;45.61;102913.78;7395040;19;20036;-60
2023/01/27 12:10:32;;;;;;;3.08;1.40;;;;;;;6.32;45.79;102905.25;7395605;19;20002;-60
2023/01/27 12:13:19;;;;;;;1.90;1.50;;;;;;;6.47;45.69;102909.97;7393709;19;20005;-59
2023/01/27 12:16:04;;;;;;;2.55;1.70;;;;;;;6.50;45.37;102904.03;7395606;19;19996;-59
2023/01/27 12:18:45;;;;;;;4.57;1.60;;;;;;;6.41;45.76;102912.91;7394273;19;20002;-59
2023/01/27 12:21:12;;;;;;;2.58;1.50;;;;;;;6.50;45.68;102911.38;7395636;19;19995;-59